EGNM/LBA METAR and TAF weather

Enter ICAO airport designator
Station Type Date Time Source
EGNM METAR 2019/08/21 22:50 UTC NOAA

EGNM 212250Z 22011KT 190V250 CAVOK 15/10 Q1020


Station Type Date Time Source
EGNM Decoded METAR 2019/08/21 22:50 UTC NOAA

Station name not available
Aug 21, 2019 - 06:50 PM EDT / 2019.08.21 2250 UTC
Wind: from the SW (220 degrees) at 13 MPH (11 KT) (direction variable):0
Visibility: greater than 7 mile(s):0
Temperature: 59 F (15 C)
Dew Point: 50 F (10 C)
Relative Humidity: 72%
Pressure (altimeter): 30.12 in. Hg (1020 hPa)
ob: EGNM 212250Z 22011KT 190V250 CAVOK 15/10 Q1020
cycle: 23

Station Type Date Time Source
EGNM TAF 2019/08/21 18:06 UTC NOAA

TAF TAF EGNM 211701Z 2118/2218 22012KT 9999 SCT025 PROB30
TEMPO 2118/2122 6000 SHRA
TEMPO 2122/2206 23017G27KT 6000 RA BKN012 PROB30
TEMPO 2203/2210 BKN008 PROB40
TEMPO 2206/2213 6000 RA BKN012
TEMPO 2212/2218 24017G27KT

Example: see airport list